North Bend, OR

7:52 AM PST on November 21, 2017 (GMT -0800)
North Bend Municipal

Weather History for KOTH - March, 2014

Change the Weather History Date:

Wednesday, March 5, 2014

  Actual Average Record
Temperature  
Mean Temperature 59 °F 47 °F  
Max Temperature 63 °F 54 °F 68 °F (1984)
Min Temperature 55 °F 41 °F 28 °F (1931)
Degree Days  
Heating Degree Days 6 18  
Month to date heating degree days 45 90  
Since 1 July heating degree days 2842 3264  
Cooling Degree Days 0 0  
Month to date cooling degree days 0 0  
Year to date cooling degree days 0 0  
Growing Degree Days 8 (Base 50)    
Moisture  
Dew Point 56 °F    
Average Humidity 92    
Maximum Humidity 100    
Minimum Humidity 78    
Precipitation  
Precipitation 0.72 in 0.27 in 2.10 in (1974)
Month to date precipitation 1.06 1.39  
Year to date precipitation 11.78 19.17  
Sea Level Pressure  
Sea Level Pressure 29.74 in    
Wind  
Wind Speed 14 mph (South)    
Max Wind Speed 28 mph    
Max Gust Speed 41 mph    
Visibility 9 miles    
Events      
T = Trace of Precipitation, MM = Missing Value Source: NWS Daily Summary

Daily Weather History Graph

Daily Weather History Graph

Search for Another Location

Airport or City:

Trip Planner

Search our weather history database for the weather conditions in past years. The results will help you decide how hot, cold, wet, or windy it might be!

Date:

Astronomy

Mar. 05, 2014 Rise Set
Actual Time 6:46 AM PST 6:11 PM PST
Civil Twilight 6:17 AM PST 6:39 PM PST
Nautical Twilight 5:44 AM PST 7:12 PM PST
Astronomical Twilight 5:11 AM PST 7:46 PM PST
Moon 9:07 AM PST (3/5) 11:35 PM PST (3/5)
Length of Visible Light 12h 21m
Length of Day
11h 24m
Waxing Crescent, 24% of the Moon is Illuminated
Mar 5
Waxing Crescent
Mar 8
First Quarter
Mar 16
Full
Mar 23
Last Quarter
Mar 30
New

Hourly Weather History & Observations

Time (PST) Temp. Dew Point Humidity Pressure Visibility Wind Dir Wind Speed Gust Speed Precip Events Conditions
12:15 AM 55.4 °F 55.4 °F 100% 29.88 in 9.0 mi SSE 4.6 mph - N/A   Overcast
12:35 AM 55.4 °F 53.6 °F 94% 29.87 in 10.0 mi SE 4.6 mph - N/A   Overcast
12:55 AM 55.4 °F 55.4 °F 100% 29.87 in 9.0 mi South 4.6 mph - N/A   Overcast
1:15 AM 55.4 °F 55.4 °F 100% 29.87 in 9.0 mi South 6.9 mph - 0.03 in   Overcast
1:35 AM 57.2 °F 55.4 °F 94% 29.86 in 10.0 mi South 8.1 mph - 0.03 in   Overcast
1:55 AM 57.2 °F 57.2 °F 100% 29.85 in 9.0 mi South 8.1 mph - 0.04 in   Overcast
2:15 AM 57.2 °F 57.2 °F 100% 29.85 in 10.0 mi South 17.3 mph 26.5 mph 0.02 in   Overcast
2:35 AM 57.2 °F 57.2 °F 100% 29.85 in 10.0 mi SSW 12.7 mph 29.9 mph 0.05 in   Overcast
2:55 AM 57.2 °F 57.2 °F 100% 29.85 in 10.0 mi SSW 17.3 mph 29.9 mph 0.06 in   Overcast
3:15 AM 57.2 °F 55.4 °F 94% 29.84 in 9.0 mi South 17.3 mph 26.5 mph 0.03 in   Overcast
3:35 AM 57.2 °F 55.4 °F 94% 29.84 in 10.0 mi South 15.0 mph 25.3 mph 0.06 in   Overcast
3:55 AM 57.2 °F 55.4 °F 94% 29.83 in 9.0 mi South 15.0 mph 20.7 mph 0.07 in   Overcast
4:15 AM 57.2 °F 55.4 °F 94% 29.83 in 10.0 mi South 16.1 mph 27.6 mph 0.01 in   Overcast
4:35 AM 57.2 °F 55.4 °F 94% 29.83 in 8.0 mi SSW 6.9 mph 18.4 mph 0.05 in   Overcast
4:55 AM 57.2 °F 55.4 °F 94% 29.83 in 10.0 mi South 9.2 mph - 0.08 in   Overcast
5:15 AM 57.2 °F 55.4 °F 94% 29.83 in 10.0 mi South 4.6 mph - 0.02 in   Overcast
5:35 AM 57.2 °F 55.4 °F 94% 29.84 in 5.0 mi South 6.9 mph - 0.07 in   Overcast
5:55 AM 57.2 °F 55.4 °F 94% 29.83 in 10.0 mi South 12.7 mph 27.6 mph 0.16 in   Overcast
6:15 AM 57.2 °F 55.4 °F 94% 29.83 in 10.0 mi South 16.1 mph 26.5 mph 0.04 in   Overcast
6:35 AM 57.2 °F 55.4 °F 94% 29.83 in 10.0 mi South 11.5 mph 18.4 mph 0.05 in   Overcast
6:55 AM 57.2 °F 55.4 °F 94% 29.82 in 10.0 mi South 12.7 mph 16.1 mph 0.10 in   Overcast
7:15 AM 55.4 °F 55.4 °F 100% 29.82 in 7.0 mi South 9.2 mph - 0.02 in   Overcast
7:35 AM 55.4 °F 55.4 °F 100% 29.82 in 10.0 mi SSE 6.9 mph - 0.03 in   Overcast
7:55 AM 55.4 °F 55.4 °F 100% 29.82 in 10.0 mi SSE 8.1 mph - 0.04 in   Overcast
8:15 AM 57.2 °F 57.2 °F 100% 29.81 in 10.0 mi South 6.9 mph - N/A   Overcast
8:35 AM 57.2 °F 55.4 °F 94% 29.81 in 10.0 mi South 6.9 mph - N/A   Overcast
8:55 AM 55.4 °F 55.4 °F 100% 29.81 in 8.0 mi SSE 8.1 mph - N/A   Overcast
9:15 AM 55.4 °F 55.4 °F 100% 29.80 in 9.0 mi SSE 5.8 mph - N/A   Overcast
9:35 AM 57.2 °F 55.4 °F 94% 29.79 in 10.0 mi SSE 5.8 mph - 0.01 in   Overcast
9:55 AM 57.2 °F 57.2 °F 100% 29.78 in 10.0 mi SSE 5.8 mph - 0.01 in   Overcast
10:15 AM 57.2 °F 57.2 °F 100% 29.77 in 10.0 mi SSE 6.9 mph - N/A   Overcast
10:35 AM 57.2 °F 57.2 °F 100% 29.76 in 10.0 mi SSE 3.5 mph - N/A   Overcast
10:55 AM 59.0 °F 57.2 °F 94% 29.75 in 8.0 mi SSE 8.1 mph - N/A   Overcast
11:15 AM 60.8 °F 57.2 °F 88% 29.74 in 10.0 mi SSE 11.5 mph - 0.01 in   Overcast
11:35 AM 60.8 °F 57.2 °F 88% 29.73 in 10.0 mi SSE 10.4 mph - 0.01 in   Overcast
11:55 AM 62.6 °F 57.2 °F 82% 29.71 in 10.0 mi South 9.2 mph 17.3 mph 0.01 in   Overcast
12:15 PM 62.6 °F 57.2 °F 82% 29.70 in 10.0 mi South 11.5 mph 17.3 mph N/A   Overcast
12:35 PM 62.6 °F 57.2 °F 82% 29.67 in 10.0 mi SSE 11.5 mph - N/A   Overcast
12:55 PM 62.6 °F 55.4 °F 77% 29.65 in 10.0 mi South 12.7 mph 18.4 mph N/A   Overcast
1:15 PM 62.6 °F 57.2 °F 82% 29.66 in 7.0 mi SSW 9.2 mph - 0.01 in   Overcast
1:35 PM 60.8 °F 57.2 °F 88% 29.63 in 10.0 mi SSE 10.4 mph - 0.04 in   Overcast
1:55 PM 60.8 °F 59.0 °F 94% 29.62 in 8.0 mi South 9.2 mph - 0.05 in   Overcast
2:15 PM 60.8 °F 59.0 °F 94% 29.62 in 10.0 mi South 6.9 mph - N/A   Overcast
2:35 PM 60.8 °F 59.0 °F 94% 29.61 in 10.0 mi South 11.5 mph 16.1 mph N/A   Overcast
2:55 PM 60.8 °F 59.0 °F 94% 29.58 in 10.0 mi SSE 10.4 mph - N/A   Overcast
3:15 PM 60.8 °F 59.0 °F 94% 29.59 in 9.0 mi South 8.1 mph - 0.05 in   Overcast
3:35 PM 60.8 °F 59.0 °F 94% 29.58 in 10.0 mi SSW 28.8 mph 42.6 mph 0.06 in   Overcast
3:55 PM 60.8 °F 59.0 °F 94% 29.57 in 4.0 mi SSW 27.6 mph 41.4 mph 0.06 in   Overcast
4:15 PM 60.8 °F 57.2 °F 88% 29.58 in 5.0 mi SSW 32.2 mph 49.5 mph 0.01 in   Overcast
4:35 PM 59.0 °F 55.4 °F 88% 29.60 in 10.0 mi SSW 26.5 mph 47.2 mph 0.01 in   Overcast
4:55 PM 59.0 °F 55.4 °F 88% 29.61 in 10.0 mi SSW 24.2 mph 41.4 mph 0.01 in   Overcast
5:15 PM 59.0 °F 55.4 °F 88% 29.61 in 10.0 mi SSW 25.3 mph 40.3 mph N/A   Overcast
5:35 PM 59.0 °F 55.4 °F 88% 29.61 in 10.0 mi SSW 24.2 mph 38.0 mph N/A   Overcast
5:55 PM 59.0 °F 55.4 °F 88% 29.62 in 10.0 mi SSW 24.2 mph 38.0 mph N/A   Overcast
6:15 PM 57.2 °F 55.4 °F 94% 29.62 in 10.0 mi SSW 26.5 mph 38.0 mph N/A   Overcast
6:35 PM 57.2 °F 55.4 °F 94% 29.64 in 9.0 mi SSW 20.7 mph 32.2 mph 0.01 in   Overcast
6:55 PM 57.2 °F 55.4 °F 94% 29.65 in 9.0 mi SSW 23.0 mph 35.7 mph 0.02 in   Overcast
7:15 PM 57.2 °F 55.4 °F 94% 29.65 in 10.0 mi SSW 23.0 mph 40.3 mph N/A   Overcast
7:35 PM 57.2 °F 55.4 °F 94% 29.66 in 10.0 mi SSW 23.0 mph 41.4 mph 0.01 in   Mostly Cloudy
7:55 PM 57.2 °F 53.6 °F 88% 29.67 in 10.0 mi SSW 21.9 mph 39.1 mph 0.01 in   Overcast
8:15 PM 57.2 °F 53.6 °F 88% 29.68 in 10.0 mi SSW 23.0 mph 34.5 mph N/A   Overcast
8:35 PM 57.2 °F 53.6 °F 88% 29.69 in 10.0 mi SSW 18.4 mph 29.9 mph N/A   Overcast
8:55 PM 57.2 °F 51.8 °F 82% 29.70 in 10.0 mi SSW 21.9 mph 34.5 mph N/A   Mostly Cloudy
9:15 PM 57.2 °F 51.8 °F 82% 29.70 in 10.0 mi SSW 28.8 mph 34.5 mph N/A   Overcast
9:35 PM 57.2 °F 51.8 °F 82% 29.70 in 10.0 mi SSW 24.2 mph 35.7 mph N/A   Mostly Cloudy
9:55 PM 57.2 °F 51.8 °F 82% 29.71 in 10.0 mi SSW 20.7 mph 38.0 mph N/A   Mostly Cloudy
10:15 PM 57.2 °F 51.8 °F 82% 29.72 in 10.0 mi SSW 18.4 mph 35.7 mph N/A   Overcast
10:35 PM 57.2 °F 51.8 °F 82% 29.71 in 10.0 mi SSW 24.2 mph 36.8 mph N/A   Mostly Cloudy
10:55 PM 57.2 °F 51.8 °F 82% 29.72 in 10.0 mi SSW 25.3 mph 40.3 mph N/A   Mostly Cloudy
11:15 PM 57.2 °F 51.8 °F 82% 29.72 in 10.0 mi SSW 24.2 mph 40.3 mph N/A   Overcast
11:35 PM 57.2 °F 51.8 °F 82% 29.73 in 10.0 mi SSW 20.7 mph 40.3 mph N/A   Overcast
11:55 PM 57.2 °F 51.8 °F 82% 29.73 in 10.0 mi SSW 26.5 mph 40.3 mph N/A   Mostly Cloudy